Time;durP1;ratioP1;P1;durP2;ratioP2;P2;SDS_P1;SDS_P2;PMS_P1;PMS_P2;Temp;Humidity;BMP_temperature;BMP_pressure;BME280_temperature;BME280_humidity;BME280_pressure;Samples;Min_cycle;Max_cycle;Signal;HPM_P1;HPM_P2
2022/04/18 00:01:37;;;;;;;4.85;3.00;;;;;;;9.30;53.70;101908.13;5196831;28;20085;-64
2022/04/18 00:04:08;;;;;;;4.90;3.22;;;;;;;9.19;53.78;101908.78;5201517;28;20501;-66
2022/04/18 00:06:40;;;;;;;4.70;2.85;;;;;;;9.16;53.63;101906.34;5193248;28;20025;-65
2022/04/18 00:09:11;;;;;;;4.55;2.95;;;;;;;9.15;54.38;101906.47;5198425;28;20113;-65
2022/04/18 00:11:43;;;;;;;6.28;3.08;;;;;;;9.05;53.96;101897.50;5196111;28;20172;-66
2022/04/18 00:14:14;;;;;;;4.72;3.58;;;;;;;9.13;54.55;101903.09;5199747;28;20036;-66
2022/04/18 00:16:45;;;;;;;5.30;3.17;;;;;;;9.02;54.85;101895.94;5195352;28;20099;-66
2022/04/18 00:19:17;;;;;;;6.50;3.67;;;;;;;9.01;55.07;101896.84;5197479;28;20412;-64
2022/04/18 00:21:48;;;;;;;6.15;3.47;;;;;;;8.96;56.76;101891.91;5198965;28;20029;-65
2022/04/18 00:24:21;;;;;;;5.05;3.60;;;;;;;8.87;55.91;101895.09;5196144;28;20030;-66
2022/04/18 00:26:52;;;;;;;5.20;3.47;;;;;;;8.94;57.21;101899.00;5193312;28;20029;-64
2022/04/18 00:29:24;;;;;;;5.15;3.65;;;;;;;8.85;56.36;101894.31;5193688;28;20033;-67
2022/04/18 00:31:55;;;;;;;4.90;3.80;;;;;;;8.69;56.71;101888.34;5196782;28;20026;-64
2022/04/18 00:34:26;;;;;;;5.40;3.58;;;;;;;8.63;56.92;101897.38;5194089;28;20770;-65
2022/04/18 00:36:57;;;;;;;6.22;3.80;;;;;;;8.68;58.48;101904.97;5198124;28;20029;-66
2022/04/18 00:39:29;;;;;;;5.70;3.70;;;;;;;8.61;57.76;101911.50;5196262;28;20069;-65
2022/04/18 00:42:00;;;;;;;6.15;3.88;;;;;;;8.62;58.49;101907.94;5197689;28;20026;-66
2022/04/18 00:44:31;;;;;;;6.70;3.85;;;;;;;8.48;59.21;101904.34;5194629;28;20075;-66
2022/04/18 00:47:03;;;;;;;6.70;3.80;;;;;;;8.48;58.99;101901.75;5195746;28;20060;-65
2022/04/18 00:49:34;;;;;;;5.93;3.58;;;;;;;8.40;58.30;101897.91;5196563;28;20033;-64
2022/04/18 00:52:06;;;;;;;5.10;3.58;;;;;;;8.36;59.00;101897.22;5195937;28;20032;-65
2022/04/18 00:54:38;;;;;;;5.88;3.75;;;;;;;8.32;59.07;101894.88;5194425;28;21297;-65
2022/04/18 00:57:12;;;;;;;6.85;3.92;;;;;;;8.30;59.40;101902.81;5196332;28;20026;-65
2022/04/18 00:59:44;;;;;;;6.10;3.67;;;;;;;8.26;59.04;101901.31;5194807;28;20050;-65
2022/04/18 01:02:17;;;;;;;5.23;3.83;;;;;;;8.19;60.20;101900.00;5189802;28;20532;-66
2022/04/18 01:04:49;;;;;;;6.57;3.95;;;;;;;8.13;59.96;101898.56;5201184;28;20384;-66
2022/04/18 01:07:21;;;;;;;7.15;4.00;;;;;;;8.08;60.52;101887.56;5201909;28;20034;-65
2022/04/18 01:09:52;;;;;;;6.40;3.83;;;;;;;8.02;60.42;101888.72;5193047;28;20032;-66
2022/04/18 01:12:24;;;;;;;5.32;3.58;;;;;;;8.13;60.48;101884.66;5194397;28;20030;-66
2022/04/18 01:14:55;;;;;;;5.70;3.53;;;;;;;8.04;60.98;101888.66;5195513;28;20022;-66
2022/04/18 01:17:27;;;;;;;5.57;3.88;;;;;;;7.93;62.04;101886.66;5193728;28;20072;-64
2022/04/18 01:19:58;;;;;;;6.55;3.78;;;;;;;7.98;61.77;101892.44;5195957;28;20029;-65
2022/04/18 01:22:30;;;;;;;4.80;3.35;;;;;;;7.88;61.67;101883.47;5193634;28;20776;-66
2022/04/18 01:30:44;;;;;;;4.55;3.30;;;;;;;7.69;62.14;101886.28;5194364;28;20050;-66
2022/04/18 01:33:15;;;;;;;;;;;;;;;8.29;57.60;101891.50;5196721;28;20430;-65
2022/04/18 01:35:47;;;;;;;5.07;3.27;;;;;;;7.67;61.52;101888.13;5197761;28;19925;-66
2022/04/18 01:38:18;;;;;;;10.43;3.60;;;;;;;7.62;61.60;101895.38;5194110;28;20062;-66
2022/04/18 01:40:49;;;;;;;5.28;3.20;;;;;;;7.55;61.95;101888.81;5197590;28;20033;-65
2022/04/18 01:43:20;;;;;;;6.10;3.28;;;;;;;7.51;63.96;101888.16;5195667;28;20030;-65
2022/04/18 01:45:52;;;;;;;6.13;3.67;;;;;;;7.48;63.61;101885.69;5195575;28;20104;-65
2022/04/18 01:48:23;;;;;;;4.88;3.70;;;;;;;7.44;63.69;101886.78;5196982;28;20037;-65
2022/04/18 01:50:54;;;;;;;7.03;4.50;;;;;;;7.36;64.72;101888.16;5194718;28;20031;-69
2022/04/18 01:53:27;;;;;;;5.35;2.92;;;;;;;7.42;63.97;101885.19;5193933;28;20606;-67
2022/04/18 01:55:59;;;;;;;5.10;2.63;;;;;;;7.35;63.44;101884.69;5193671;28;20034;-68
2022/04/18 01:58:30;;;;;;;4.20;2.40;;;;;;;7.32;62.74;101885.69;5195859;28;20084;-67
2022/04/18 02:01:02;;;;;;;4.22;2.67;;;;;;;7.26;62.68;101875.59;5188478;28;20120;-66
2022/04/18 02:03:33;;;;;;;4.35;2.45;;;;;;;7.25;62.62;101878.28;5193086;28;20040;-65
2022/04/18 02:06:05;;;;;;;6.10;2.67;;;;;;;7.29;62.27;101874.59;5195453;28;20054;-66
2022/04/18 02:08:36;;;;;;;4.38;2.45;;;;;;;7.22;63.50;101870.63;5195850;28;20436;-67
2022/04/18 02:11:07;;;;;;;4.25;2.75;;;;;;;7.17;63.66;101873.50;5191096;28;20601;-66
2022/04/18 02:13:39;;;;;;;3.17;2.35;;;;;;;7.11;63.77;101866.00;5196688;28;20021;-66
2022/04/18 02:16:10;;;;;;;4.78;2.72;;;;;;;7.09;65.18;101867.88;5198863;28;20049;-66
2022/04/18 02:18:41;;;;;;;6.03;2.60;;;;;;;7.07;64.24;101870.53;5198484;28;20336;-66
2022/04/18 02:21:13;;;;;;;5.65;3.00;;;;;;;7.04;65.20;101862.88;5200862;28;20029;-66
2022/04/18 02:23:44;;;;;;;5.32;2.67;;;;;;;7.05;65.12;101863.75;5197032;28;20036;-66
2022/04/18 02:26:15;;;;;;;4.35;2.90;;;;;;;6.92;64.89;101863.53;5199512;28;20030;-66
2022/04/18 02:28:46;;;;;;;3.88;2.50;;;;;;;6.78;65.31;101855.59;5200950;28;20030;-66
2022/04/18 02:31:18;;;;;;;6.55;3.00;;;;;;;6.83;66.81;101858.84;5198047;28;20305;-66
2022/04/18 02:33:49;;;;;;;4.25;2.67;;;;;;;6.79;67.93;101859.91;5199076;28;20026;-66
2022/04/18 02:36:20;;;;;;;5.53;2.80;;;;;;;6.75;66.59;101856.63;5198045;28;20096;-66
2022/04/18 02:38:51;;;;;;;4.20;2.40;;;;;;;6.69;66.90;101856.94;5197968;28;20400;-64
2022/04/18 02:41:23;;;;;;;7.10;2.47;;;;;;;6.70;67.71;101849.97;5196661;28;20110;-66
2022/04/18 02:43:54;;;;;;;4.28;2.45;;;;;;;6.70;68.19;101849.97;5200292;28;21193;-65
2022/04/18 02:46:25;;;;;;;3.97;2.40;;;;;;;6.61;66.30;101840.88;5199041;28;20514;-66
2022/04/18 02:48:56;;;;;;;4.95;2.58;;;;;;;6.68;66.62;101849.22;5197433;28;20022;-64
2022/04/18 02:51:28;;;;;;;3.88;2.60;;;;;;;6.63;66.69;101840.78;5197359;28;20041;-66
2022/04/18 02:53:59;;;;;;;4.93;2.65;;;;;;;6.57;67.27;101839.34;5195376;28;20103;-66
2022/04/18 02:56:31;;;;;;;4.50;2.83;;;;;;;6.51;68.48;101837.91;5198879;28;20022;-66
2022/04/18 02:59:02;;;;;;;3.58;2.40;;;;;;;6.54;68.81;101840.34;5196079;28;20049;-65
2022/04/18 03:01:33;;;;;;;3.72;2.80;;;;;;;6.50;69.19;101835.38;5193474;28;20040;-66
2022/04/18 03:04:04;;;;;;;5.05;2.50;;;;;;;6.46;69.54;101829.50;5197175;28;20510;-65
2022/04/18 03:06:36;;;;;;;5.10;2.90;;;;;;;6.47;69.33;101831.16;5195938;28;20037;-66
2022/04/18 03:09:07;;;;;;;4.38;2.92;;;;;;;6.47;69.07;101827.72;5196573;28;20500;-65
2022/04/18 03:11:38;;;;;;;4.15;2.60;;;;;;;6.38;69.95;101826.44;5190652;28;20035;-65
2022/04/18 03:14:09;;;;;;;5.82;3.10;;;;;;;6.31;69.53;101825.09;5201614;28;20030;-66
2022/04/18 03:16:41;;;;;;;4.25;2.92;;;;;;;6.24;68.57;101826.31;5197474;28;20022;-64
2022/04/18 03:19:12;;;;;;;4.43;2.97;;;;;;;6.18;70.36;101822.28;5198001;28;20045;-67
2022/04/18 03:21:44;;;;;;;5.13;2.90;;;;;;;6.15;72.33;101817.22;5199007;28;20029;-66
2022/04/18 03:24:15;;;;;;;6.18;3.03;;;;;;;6.17;73.00;101817.13;5198517;28;20023;-65
2022/04/18 03:26:46;;;;;;;4.55;2.85;;;;;;;6.13;72.99;101826.00;5197026;28;20073;-65
2022/04/18 03:29:18;;;;;;;4.60;3.17;;;;;;;6.13;73.57;101826.84;5197050;28;20186;-65
2022/04/18 03:31:49;;;;;;;5.85;3.05;;;;;;;6.09;73.62;101833.13;5199862;28;20026;-66
2022/04/18 03:34:21;;;;;;;4.68;2.95;;;;;;;6.09;74.30;101831.38;5199963;28;20088;-64
2022/04/18 03:39:51;;;;;;;5.47;3.83;;;;;;;6.00;72.13;101829.22;5200852;28;20034;-67
2022/04/18 03:42:29;;;;;;;6.00;4.00;;;;;;;5.95;74.10;101833.84;5196002;28;20397;-67
2022/04/18 03:45:03;;;;;;;7.63;3.83;;;;;;;6.03;74.84;101830.84;5196470;28;20042;-67
2022/04/18 03:47:35;;;;;;;8.02;4.75;;;;;;;5.92;74.33;101828.78;5195712;28;20112;-67
2022/04/18 03:50:07;;;;;;;10.40;6.60;;;;;;;5.95;72.78;101822.59;5199318;28;20034;-67
2022/04/18 03:52:38;;;;;;;12.07;6.97;;;;;;;5.94;72.20;101829.53;5198089;28;20118;-67
2022/04/18 03:55:11;;;;;;;12.35;6.88;;;;;;;5.97;74.79;101829.38;5192841;28;20026;-66
2022/04/18 03:57:42;;;;;;;11.07;6.82;;;;;;;5.96;73.50;101832.06;5198491;28;20397;-66
2022/04/18 04:00:15;;;;;;;12.77;7.13;;;;;;;5.90;73.05;101825.38;5193855;28;20053;-67
2022/04/18 04:02:46;;;;;;;13.10;7.17;;;;;;;5.85;72.54;101827.38;5194832;28;20032;-64
2022/04/18 04:05:17;;;;;;;14.63;8.68;;;;;;;5.71;73.82;101814.19;5194236;28;20026;-65
2022/04/18 04:07:49;;;;;;;14.90;9.05;;;;;;;5.79;74.95;101827.66;5197311;28;20113;-65
2022/04/18 04:10:20;;;;;;;15.30;8.70;;;;;;;5.82;75.09;101820.53;5196159;28;20037;-64
2022/04/18 04:12:51;;;;;;;18.75;11.32;;;;;;;5.73;74.17;101822.78;5195059;28;20021;-65
2022/04/18 04:15:23;;;;;;;22.77;13.30;;;;;;;5.69;75.83;101818.63;5196739;28;20026;-65
2022/04/18 04:17:54;;;;;;;16.45;11.60;;;;;;;5.63;76.43;101819.75;5199125;28;20072;-63
2022/04/18 04:20:25;;;;;;;17.95;11.50;;;;;;;5.69;77.72;101823.84;5196747;28;20388;-66
2022/04/18 04:22:57;;;;;;;17.38;12.55;;;;;;;5.61;76.70;101813.81;5197629;28;20122;-64
2022/04/18 04:25:28;;;;;;;21.63;13.82;;;;;;;5.61;75.89;101814.66;5198549;28;20096;-65
2022/04/18 04:27:59;;;;;;;21.98;14.52;;;;;;;5.60;76.07;101812.94;5198544;28;20083;-64
2022/04/18 04:30:31;;;;;;;24.33;14.48;;;;;;;5.53;76.88;101821.13;5192769;28;20026;-64
2022/04/18 04:33:02;;;;;;;23.17;15.38;;;;;;;5.57;78.37;101822.69;5197344;28;20141;-65
2022/04/18 04:35:33;;;;;;;25.80;16.15;;;;;;;5.51;75.99;101818.59;5196600;28;20088;-67
2022/04/18 04:38:06;;;;;;;25.38;16.08;;;;;;;5.46;76.26;101809.34;5197791;28;20072;-65
2022/04/18 04:40:38;;;;;;;27.83;17.60;;;;;;;5.50;77.02;101819.53;5193844;28;20073;-66
2022/04/18 04:43:10;;;;;;;31.52;17.50;;;;;;;5.47;78.76;101824.03;5198234;28;20025;-65
2022/04/18 04:45:41;;;;;;;30.33;19.02;;;;;;;5.43;78.34;101814.69;5198876;28;20516;-66
2022/04/18 04:48:12;;;;;;;27.05;17.25;;;;;;;5.42;77.66;101823.38;5194048;28;20097;-66
2022/04/18 04:50:44;;;;;;;24.58;17.55;;;;;;;5.38;79.15;101822.72;5197347;28;20030;-66
2022/04/18 04:53:15;;;;;;;25.30;17.55;;;;;;;5.40;79.46;101820.88;5197407;28;20088;-65
2022/04/18 04:55:47;;;;;;;25.63;16.27;;;;;;;5.39;79.63;101823.56;5195641;28;20026;-64
2022/04/18 04:58:18;;;;;;;23.42;15.82;;;;;;;5.37;79.45;101821.84;5194311;28;20228;-65
2022/04/18 05:00:49;;;;;;;26.17;16.95;;;;;;;5.43;79.53;101825.09;5198541;28;20913;-66
2022/04/18 05:03:20;;;;;;;20.15;13.75;;;;;;;5.39;78.36;101826.97;5192916;28;20796;-64
2022/04/18 05:05:52;;;;;;;22.05;15.15;;;;;;;5.36;79.42;101834.91;5195429;28;20022;-66
2022/04/18 05:08:23;;;;;;;23.02;14.60;;;;;;;5.40;80.12;101831.25;5195368;28;20859;-65
2022/04/18 05:10:55;;;;;;;18.67;13.43;;;;;;;5.40;80.52;101826.06;5194812;28;20558;-65
2022/04/18 05:13:27;;;;;;;20.65;12.68;;;;;;;5.44;79.27;101827.59;5197751;28;20038;-66
2022/04/18 05:15:58;;;;;;;16.77;11.63;;;;;;;5.45;79.24;101826.69;5196074;28;20033;-66
2022/04/18 05:18:29;;;;;;;17.95;12.45;;;;;;;5.53;77.72;101829.78;5195675;28;20030;-65
2022/04/18 05:21:00;;;;;;;16.05;11.13;;;;;;;5.63;79.48;101830.16;5193737;28;20465;-66
2022/04/18 05:23:32;;;;;;;16.50;10.98;;;;;;;5.73;79.13;101827.97;5195538;28;20034;-65
2022/04/18 05:26:03;;;;;;;13.45;8.93;;;;;;;5.91;76.05;101832.28;5197418;28;20023;-66
2022/04/18 05:28:35;;;;;;;10.52;7.40;;;;;;;6.08;74.71;101826.25;5196886;28;20018;-64
2022/04/18 05:31:06;;;;;;;9.40;6.53;;;;;;;6.19;72.05;101825.72;5195744;28;20037;-65
2022/04/18 05:33:37;;;;;;;8.68;5.55;;;;;;;6.28;72.56;101833.03;5195627;28;20032;-64
2022/04/18 05:36:09;;;;;;;8.80;5.10;;;;;;;6.47;69.00;101825.97;5194378;28;20040;-65
2022/04/18 05:38:41;;;;;;;7.97;5.43;;;;;;;6.62;69.00;101839.13;5196092;28;20041;-65
2022/04/18 05:41:12;;;;;;;7.72;4.22;;;;;;;6.68;67.64;101836.19;5194453;28;20446;-65
2022/04/18 05:43:43;;;;;;;6.88;3.97;;;;;;;6.79;66.44;101834.72;5196149;28;20396;-66
2022/04/18 05:46:15;;;;;;;5.32;3.78;;;;;;;6.96;64.64;101828.59;5192601;28;20522;-66
2022/04/18 05:48:46;;;;;;;4.93;3.30;;;;;;;7.02;64.01;101837.84;5196203;28;20385;-65
2022/04/18 05:51:18;;;;;;;5.03;3.20;;;;;;;7.19;62.13;101827.34;5195072;28;20427;-65
2022/04/18 05:53:49;;;;;;;4.78;2.92;;;;;;;7.32;61.30;101838.78;5195597;28;20038;-65
2022/04/18 05:56:20;;;;;;;5.45;2.90;;;;;;;7.36;61.88;101831.63;5192125;28;20037;-66
2022/04/18 05:58:52;;;;;;;5.28;2.75;;;;;;;7.49;60.55;101832.63;5194168;28;20065;-65
2022/04/18 06:01:23;;;;;;;5.93;3.40;;;;;;;7.57;60.40;101829.56;5193374;28;20065;-63
2022/04/18 06:03:55;;;;;;;5.05;3.03;;;;;;;7.70;58.01;101837.56;5194550;28;20421;-65
2022/04/18 06:06:26;;;;;;;4.85;2.35;;;;;;;7.80;57.34;101830.88;5191577;28;20034;-65
2022/04/18 06:08:58;;;;;;;3.65;2.70;;;;;;;7.86;56.96;101840.97;5197494;28;20112;-66
2022/04/18 06:11:29;;;;;;;4.90;2.60;;;;;;;8.02;55.55;101840.91;5189902;28;20033;-66
2022/04/18 06:14:00;;;;;;;7.20;3.40;;;;;;;8.18;55.19;101843.47;5192930;28;20084;-64
2022/04/18 06:16:31;;;;;;;4.13;2.40;;;;;;;8.32;55.12;101843.50;5191664;28;20534;-66
2022/04/18 06:19:03;;;;;;;4.32;2.63;;;;;;;8.47;53.83;101840.00;5189943;28;20034;-65
2022/04/18 06:21:34;;;;;;;4.35;2.50;;;;;;;8.65;52.57;101838.06;5192942;28;20028;-66
2022/04/18 06:24:06;;;;;;;3.60;2.45;;;;;;;8.73;52.19;101842.81;5195927;28;20530;-67
2022/04/18 06:26:37;;;;;;;3.97;2.90;;;;;;;8.91;52.32;101841.69;5193365;28;20026;-66
2022/04/18 06:29:08;;;;;;;4.30;2.70;;;;;;;9.02;51.63;101836.66;5191469;28;20571;-66
2022/04/18 06:31:40;;;;;;;3.67;2.40;;;;;;;9.16;51.43;101841.00;5188649;28;20030;-66
2022/04/18 06:34:11;;;;;;;3.78;2.33;;;;;;;9.29;50.50;101830.63;5189096;28;20030;-64
2022/04/18 06:36:42;;;;;;;3.60;2.45;;;;;;;9.58;49.32;101833.97;5188255;28;20097;-65
2022/04/18 06:39:13;;;;;;;4.07;2.75;;;;;;;9.80;48.78;101837.78;5190246;28;20025;-65
2022/04/18 06:41:45;;;;;;;3.83;2.35;;;;;;;9.98;47.45;101833.97;5198047;28;20038;-64
2022/04/18 06:44:16;;;;;;;4.25;2.58;;;;;;;10.12;47.85;101835.69;5195411;28;20022;-66
2022/04/18 06:46:47;;;;;;;3.90;2.63;;;;;;;10.32;46.91;101832.56;5193616;28;20017;-65
2022/04/18 06:49:19;;;;;;;3.88;2.38;;;;;;;10.39;47.28;101835.63;5189618;28;20641;-64
2022/04/18 06:51:50;;;;;;;4.07;2.40;;;;;;;10.63;46.37;101843.56;5191702;28;20758;-66
2022/04/18 06:54:21;;;;;;;3.58;2.13;;;;;;;10.79;45.16;101841.56;5191305;28;20022;-64
2022/04/18 06:56:58;;;;;;;3.40;2.13;;;;;;;11.00;45.00;101833.97;5192944;28;20042;-66
2022/04/18 06:59:30;;;;;;;2.65;2.03;;;;;;;11.23;43.74;101837.59;5194575;28;20043;-65
2022/04/18 07:02:02;;;;;;;4.13;2.22;;;;;;;11.47;43.54;101831.50;5200909;28;20069;-65
2022/04/18 07:04:33;;;;;;;4.35;2.17;;;;;;;11.65;43.61;101830.16;5201007;28;20054;-64
2022/04/18 07:07:06;;;;;;;2.72;1.73;;;;;;;11.85;42.82;101832.19;5202350;28;20057;-67
2022/04/18 07:09:37;;;;;;;4.00;2.17;;;;;;;12.05;42.21;101832.50;5195731;28;20460;-66
2022/04/18 07:12:09;;;;;;;4.07;2.03;;;;;;;12.09;42.00;101824.28;5196998;28;20048;-65
2022/04/18 07:14:41;;;;;;;3.55;1.95;;;;;;;12.24;41.55;101835.41;5190105;28;20186;-65
2022/04/18 07:17:13;;;;;;;3.85;2.00;;;;;;;12.37;40.11;101830.88;5192598;28;20081;-66
2022/04/18 07:19:44;;;;;;;4.30;1.60;;;;;;;12.46;39.93;101826.69;5192977;28;20117;-67
2022/04/18 07:22:15;;;;;;;4.38;2.03;;;;;;;12.62;39.18;101827.19;5196103;28;20109;-66
2022/04/18 07:24:46;;;;;;;3.13;1.70;;;;;;;12.81;38.88;101831.03;5199174;28;20129;-67
2022/04/18 07:27:18;;;;;;;4.07;2.13;;;;;;;12.93;38.28;101822.16;5188736;28;20033;-68
2022/04/18 07:29:49;;;;;;;2.80;1.70;;;;;;;13.03;38.67;101809.97;5197238;28;20030;-64
2022/04/18 07:32:20;;;;;;;2.63;1.50;;;;;;;13.20;37.67;101816.50;5199599;28;20121;-68
2022/04/18 07:34:53;;;;;;;4.55;1.80;;;;;;;13.31;38.05;101810.41;5189983;28;20076;-68
2022/04/18 07:37:24;;;;;;;4.35;1.70;;;;;;;13.69;37.62;101814.31;5196321;28;20044;-64
2022/04/18 07:39:56;;;;;;;2.50;1.50;;;;;;;13.62;37.65;101809.56;5206391;28;20460;-64
2022/04/18 07:42:27;;;;;;;4.30;1.70;;;;;;;13.83;36.21;101809.59;5203959;28;20029;-66
2022/04/18 07:44:58;;;;;;;3.90;2.28;;;;;;;14.03;36.34;101810.56;5192616;28;20049;-67
2022/04/18 07:47:30;;;;;;;3.13;1.80;;;;;;;14.27;36.92;101812.06;5196342;28;20438;-65
2022/04/18 07:50:01;;;;;;;4.07;1.80;;;;;;;14.49;35.63;101797.88;5187858;28;20375;-65
2022/04/18 07:52:33;;;;;;;3.38;2.03;;;;;;;14.72;35.17;101804.66;5195524;28;20081;-67
2022/04/18 07:55:04;;;;;;;3.55;1.83;;;;;;;14.79;34.47;101800.53;5188207;28;20077;-64
2022/04/18 07:57:37;;;;;;;3.05;1.40;;;;;;;15.05;35.78;101802.69;5189180;28;20033;-66
2022/04/18 08:00:10;;;;;;;6.05;1.90;;;;;;;15.18;34.65;101803.25;5188395;28;20133;-66
2022/04/18 08:02:41;;;;;;;3.73;1.90;;;;;;;15.28;34.12;101795.38;5186533;28;20073;-64
2022/04/18 08:05:12;;;;;;;2.70;1.70;;;;;;;15.27;33.93;101798.97;5193997;28;20384;-66
2022/04/18 08:07:43;;;;;;;4.53;1.90;;;;;;;15.36;33.25;101800.78;5185223;28;20475;-67
2022/04/18 08:10:15;;;;;;;3.17;1.98;;;;;;;15.50;33.69;101796.91;5180067;28;21356;-65
2022/04/18 08:12:46;;;;;;;10.25;2.20;;;;;;;15.52;32.01;101801.06;5193188;28;20852;-66
2022/04/18 08:15:17;;;;;;;2.90;1.75;;;;;;;15.59;32.62;101806.63;5188107;28;20675;-67
2022/04/18 08:17:49;;;;;;;3.90;1.85;;;;;;;15.76;33.72;101808.59;5194349;28;20030;-67
2022/04/18 08:20:20;;;;;;;2.53;1.88;;;;;;;15.81;32.65;101806.38;5192515;28;20170;-68
2022/04/18 08:22:51;;;;;;;3.78;1.75;;;;;;;15.92;32.25;101804.56;5196116;28;20057;-67
2022/04/18 08:25:23;;;;;;;3.75;1.90;;;;;;;16.01;32.64;101808.97;5197406;28;20025;-66
2022/04/18 08:27:54;;;;;;;4.03;2.08;;;;;;;16.02;31.79;101813.28;5192934;28;20404;-68
2022/04/18 08:30:25;;;;;;;2.50;1.65;;;;;;;16.10;32.11;101812.56;5195952;28;20117;-67
2022/04/18 08:32:57;;;;;;;3.97;1.88;;;;;;;16.13;32.09;101810.47;5195067;28;20033;-67
2022/04/18 08:35:32;;;;;;;3.88;2.03;;;;;;;16.29;31.61;101810.72;5189193;28;20487;-68
2022/04/18 08:38:03;;;;;;;3.70;1.55;;;;;;;16.21;30.69;101813.25;5196307;28;20102;-68
2022/04/18 08:40:36;;;;;;;3.17;1.75;;;;;;;16.37;31.22;101802.06;5194578;28;20030;-67
2022/04/18 08:43:08;;;;;;;2.65;1.55;;;;;;;16.54;31.04;101809.22;5195087;28;20034;-66
2022/04/18 08:45:39;;;;;;;2.83;1.50;;;;;;;16.69;30.39;101804.28;5195264;28;20036;-66
2022/04/18 08:53:58;;;;;;;3.55;1.50;;;;;;;16.95;29.42;101807.13;5193697;28;20057;-67
2022/04/18 08:56:30;;;;;;;3.78;2.03;;;;;;;17.05;30.45;101808.88;5196162;28;20104;-67
2022/04/18 08:59:02;;;;;;;3.97;1.90;;;;;;;17.11;29.69;101806.47;5190988;28;20448;-65
2022/04/18 09:01:33;;;;;;;2.95;1.75;;;;;;;17.16;29.51;101798.06;5195477;28;20482;-67
2022/04/18 09:04:05;;;;;;;2.55;1.70;;;;;;;17.31;30.63;101801.03;5192240;28;20087;-67
2022/04/18 09:06:39;;;;;;;3.70;1.98;;;;;;;17.35;29.93;101787.34;5194689;28;20460;-67
2022/04/18 09:09:10;;;;;;;4.25;1.67;;;;;;;17.34;29.67;101806.03;5194338;28;20030;-67
2022/04/18 09:11:45;;;;;;;3.55;2.00;;;;;;;17.52;29.78;101804.22;5190764;28;20041;-65
2022/04/18 09:14:17;;;;;;;3.15;1.70;;;;;;;17.49;28.84;101799.22;5189702;28;20234;-67
2022/04/18 09:16:48;;;;;;;3.85;1.83;;;;;;;17.54;29.38;101804.91;5196485;28;20031;-66
2022/04/18 09:19:20;;;;;;;3.85;1.70;;;;;;;17.52;28.89;101793.63;5195602;28;20034;-65
2022/04/18 09:21:54;;;;;;;3.77;2.10;;;;;;;17.78;31.32;101806.13;5192466;28;20026;-66
2022/04/18 09:24:32;;;;;;;5.40;2.35;;;;;;;17.62;28.90;101802.31;5193235;28;20118;-67
2022/04/18 09:27:06;;;;;;;3.45;1.70;;;;;;;17.78;29.99;101799.00;5193821;28;20033;-66
2022/04/18 09:29:39;;;;;;;3.80;1.85;;;;;;;17.85;29.68;101804.53;5194119;28;20030;-67
2022/04/18 09:32:13;;;;;;;3.30;1.88;;;;;;;18.07;29.84;101803.16;5195193;28;20116;-68
2022/04/18 09:34:44;;;;;;;5.60;2.22;;;;;;;18.03;29.41;101792.03;5196612;28;20387;-68
2022/04/18 09:37:17;;;;;;;4.80;2.05;;;;;;;18.02;29.18;101793.03;5195214;28;20093;-67
2022/04/18 09:39:53;;;;;;;3.05;1.90;;;;;;;18.22;29.55;101793.66;5191726;28;20026;-67
2022/04/18 09:42:26;;;;;;;4.10;2.15;;;;;;;18.12;28.66;101792.94;5195434;28;20037;-68
2022/04/18 09:44:57;;;;;;;4.93;1.80;;;;;;;18.41;29.85;101784.63;5195099;28;20037;-68
2022/04/18 09:47:34;;;;;;;4.05;2.00;;;;;;;18.50;28.42;101788.19;5195682;28;20026;-66
2022/04/18 09:53:21;;;;;;;2.70;2.00;;;;;;;18.64;26.61;101771.66;5191438;28;20096;-66
2022/04/18 09:55:56;;;;;;;4.05;2.50;;;;;;;18.49;26.55;101771.41;5189857;28;20023;-67
2022/04/18 09:58:31;;;;;;;2.70;1.98;;;;;;;18.24;27.33;101771.28;5185715;28;20066;-67
2022/04/18 10:01:04;;;;;;;2.50;1.73;;;;;;;18.44;26.87;101771.88;5194514;28;20042;-68
2022/04/18 10:03:37;;;;;;;3.35;1.75;;;;;;;18.63;26.44;101770.78;5195341;28;20081;-69
2022/04/18 10:06:08;;;;;;;5.50;2.13;;;;;;;18.68;24.89;101768.50;5197123;28;20034;-68
2022/04/18 10:08:40;;;;;;;2.53;1.70;;;;;;;18.91;25.23;101765.28;5193413;28;20601;-69
2022/04/18 10:11:11;;;;;;;3.10;1.77;;;;;;;18.92;25.35;101761.63;5196904;28;20025;-69
2022/04/18 10:13:42;;;;;;;4.80;1.80;;;;;;;19.15;25.41;101767.16;5192307;28;20612;-67
2022/04/18 10:16:14;;;;;;;5.23;2.20;;;;;;;19.19;24.75;101758.69;5191254;28;20238;-68
2022/04/18 10:18:50;;;;;;;3.10;1.88;;;;;;;19.09;26.30;101758.03;5197607;28;20350;-69
2022/04/18 10:21:27;;;;;;;3.95;2.38;;;;;;;19.07;25.81;101749.38;5190453;28;20388;-69
2022/04/18 10:24:37;;;;;;;3.65;2.08;;;;;;;19.26;25.20;101753.56;5196329;28;20083;-67
2022/04/18 10:27:36;;;;;;;3.78;2.30;;;;;;;19.59;24.49;101758.88;5153054;28;20085;-69
2022/04/18 10:30:09;;;;;;;4.53;2.08;;;;;;;19.57;24.74;101747.56;5192495;28;20034;-68
2022/04/18 10:32:41;;;;;;;4.72;1.95;;;;;;;19.64;26.29;101744.09;5193467;28;20507;-68
2022/04/18 10:35:13;;;;;;;5.18;2.45;;;;;;;19.76;25.63;101735.78;5193432;28;20030;-68
2022/04/18 10:37:45;;;;;;;3.60;2.08;;;;;;;19.82;26.04;101740.44;5198229;28;20021;-68
2022/04/18 10:40:17;;;;;;;6.33;2.67;;;;;;;19.72;24.92;101742.44;5197039;28;20530;-68
2022/04/18 10:42:48;;;;;;;4.22;2.55;;;;;;;19.66;25.21;101733.28;5196598;28;20480;-69
2022/04/18 10:45:23;;;;;;;4.57;2.38;;;;;;;19.60;24.67;101733.94;5195503;28;20084;-67
2022/04/18 10:47:54;;;;;;;6.18;3.15;;;;;;;19.55;24.74;101734.47;5202827;28;20029;-69
2022/04/18 10:50:33;;;;;;;4.07;2.50;;;;;;;19.61;23.87;101732.94;5197678;28;20030;-66
2022/04/18 10:53:34;;;;;;;3.92;2.35;;;;;;;19.61;24.11;101725.78;5195931;28;20436;-68
2022/04/18 10:56:05;;;;;;;3.63;2.28;;;;;;;19.69;23.45;101732.97;5196440;28;20069;-69
2022/04/18 10:58:37;;;;;;;4.00;2.90;;;;;;;19.66;23.91;101734.16;5195787;28;20125;-68
2022/04/18 11:01:09;;;;;;;4.45;2.85;;;;;;;19.68;23.38;101726.00;5196528;28;20504;-68
2022/04/18 11:03:46;;;;;;;4.38;2.58;;;;;;;19.62;23.56;101724.84;5195984;28;20328;-68
2022/04/18 11:06:17;;;;;;;3.70;2.55;;;;;;;19.74;25.13;101714.69;5191055;28;20077;-68
2022/04/18 11:09:07;;;;;;;5.10;2.00;;;;;;;20.25;24.68;101719.69;5197055;28;20038;-67
2022/04/18 11:11:53;;;;;;;3.10;2.20;;;;;;;20.47;24.19;101716.28;5194831;28;20037;-68
2022/04/18 11:14:26;;;;;;;3.53;2.40;;;;;;;20.38;23.29;101714.63;5196483;28;20030;-68
2022/04/18 11:17:02;;;;;;;4.07;2.55;;;;;;;20.42;23.55;101718.63;5195251;28;20795;-66
2022/04/18 11:19:41;;;;;;;3.58;2.35;;;;;;;20.46;23.39;101709.31;5197297;28;20062;-68
2022/04/18 11:22:23;;;;;;;5.05;2.60;;;;;;;20.50;23.25;101700.00;5197209;28;20034;-68
2022/04/18 11:24:56;;;;;;;4.45;2.90;;;;;;;20.44;23.25;101697.97;5198730;28;20026;-66
2022/04/18 11:27:27;;;;;;;4.03;2.28;;;;;;;20.63;24.65;101700.25;5196559;28;20471;-68
2022/04/18 11:30:06;;;;;;;3.87;2.50;;;;;;;20.35;23.40;101702.53;5194825;28;20033;-69
2022/04/18 11:32:40;;;;;;;4.57;2.22;;;;;;;20.54;23.34;101698.63;5197828;28;20411;-68
2022/04/18 11:35:13;;;;;;;4.65;2.20;;;;;;;20.62;23.53;101700.44;5198771;28;20061;-66
2022/04/18 11:37:45;;;;;;;3.42;2.25;;;;;;;20.81;23.34;101699.16;5196614;28;20101;-68
2022/04/18 11:40:18;;;;;;;4.30;2.40;;;;;;;20.97;23.97;101695.53;5198524;28;20022;-67
2022/04/18 11:42:50;;;;;;;3.45;2.47;;;;;;;20.87;24.21;101696.59;5198807;28;20431;-69
2022/04/18 11:45:25;;;;;;;3.53;2.67;;;;;;;21.01;23.63;101689.66;5198686;28;20022;-68
2022/04/18 11:47:56;;;;;;;4.65;2.38;;;;;;;20.80;23.59;101689.50;5190798;28;20109;-68
2022/04/18 11:50:28;;;;;;;7.60;2.93;;;;;;;20.97;23.29;101696.34;5191150;28;20034;-68
2022/04/18 11:53:05;;;;;;;2.83;2.10;;;;;;;21.17;24.39;101687.88;5191076;28;20526;-66
2022/04/18 11:55:49;;;;;;;3.30;2.50;;;;;;;21.28;24.63;101696.28;5199558;28;20037;-68
2022/04/18 11:58:21;;;;;;;3.58;2.65;;;;;;;20.89;22.81;101689.25;5199063;28;20383;-69
2022/04/18 12:06:49;;;;;;;4.50;2.58;;;;;;;21.08;23.80;101682.63;5192683;28;20397;-68
2022/04/18 12:09:21;;;;;;;3.50;2.40;;;;;;;21.17;22.93;101679.88;5192819;28;20039;-68
2022/04/18 12:11:53;;;;;;;2.97;2.47;;;;;;;21.36;22.91;101682.91;5192712;28;20025;-69
2022/04/18 12:14:31;;;;;;;3.67;2.37;;;;;;;21.31;21.66;101676.44;5193150;28;20037;-68